Thailine 5 — 9WFF5 — position and weather

sailwx.info

Track history (hours):
 
Tides and Currents Weather Stations Pressure Air Temp Water Temp Dewpoint Dewpoint Depression Visibility Wind Speed Wind Dir Waves Ship Positions

Thailine 5

Last reported at 2015-Jul-30 01:21 UTC. Time now 2015-Jul-30 02:04 UTC.
Position N 34°31' E 135°23'.

; draft 7.4 m.

Type: Cargo ship. MMSI: 533399000.

Date/timePositionNaut miles runAvg speedWind from/ knotsBaromVisibWave heightAir tempDewpointWater temp
2015-Jul-30 01:21N 34°31' E 135°23'0 0.0
2015-Jul-30 00:33N 34°31' E 135°23'0 0.0
2015-Jul-29 23:34N 34°31' E 135°23'0 0.0
2015-Jul-29 22:09N 34°31' E 135°23'0 0.0
2015-Jul-29 21:34N 34°31' E 135°23'0 0.0
2015-Jul-29 20:27N 34°31' E 135°23'0 0.0
2015-Jul-29 19:33N 34°31' E 135°23'0 0.0
2015-Jul-29 18:33N 34°31' E 135°23'0 0.0
2015-Jul-29 17:33N 34°31' E 135°23'0 0.0
2015-Jul-29 16:27N 34°31' E 135°23'0 0.0
2015-Jul-29 15:33N 34°31' E 135°23'0 0.0
2015-Jul-29 14:34N 34°31' E 135°23'0 0.0
2015-Jul-29 13:33N 34°31' E 135°23'0 0.0
2015-Jul-29 12:33N 34°31' E 135°23'0 0.0
2015-Jul-29 11:09N 34°31' E 135°23'0 0.0
2015-Jul-29 10:27N 34°31' E 135°23'0 0.0
2015-Jul-29 09:27N 34°31' E 135°23'0 0.0
2015-Jul-29 08:33N 34°31' E 135°23'0 0.0
2015-Jul-29 07:27N 34°31' E 135°23'0 0.0
2015-Jul-29 06:33N 34°31' E 135°23'1 0.5
2015-Jul-29 05:33N 34°31' E 135°23'2 1.5
2015-Jul-29 04:24N 34°32' E 135°21'0 0.0
2015-Jul-29 02:24N 34°32' E 135°21'0 0.0
2015-Jul-29 01:30N 34°32' E 135°21'0 0.0
2015-Jul-28 22:30N 34°32' E 135°21'0 0.1
2015-Jul-28 21:30N 34°32' E 135°21'0 0.0
2015-Jul-28 20:24N 34°32' E 135°21'0 0.1
2015-Jul-28 19:24N 34°32' E 135°21'0 0.0
2015-Jul-28 18:24N 34°32' E 135°21'0 0.0
2015-Jul-28 17:30N 34°32' E 135°21'0 0.0
2015-Jul-28 16:24N 34°32' E 135°21'0 0.1
2015-Jul-28 15:12N 34°32' E 135°21'0 0.1
2015-Jul-28 14:18N 34°32' E 135°21'0 0.0
2015-Jul-28 12:30N 34°32' E 135°21'0 0.0
2015-Jul-28 11:18N 34°32' E 135°21'0 0.0
2015-Jul-28 10:30N 34°32' E 135°21'0 0.0
2015-Jul-28 09:24N 34°32' E 135°21'0 0.0
2015-Jul-28 08:13N 34°32' E 135°21'3 4.2
2015-Jul-28 07:33N 34°30' E 135°18'10 9.9
2015-Jul-28 06:33N 34°25' E 135°08'10 9.6
2015-Jul-28 05:31N 34°18' E 134°60'8 8.3
2015-Jul-28 04:33N 34°10' E 134°59'6 5.0
2015-Jul-28 03:17N 34°04' E 134°57'3 4.0
2015-Jul-28 02:32N 34°02' E 134°59'3 1.9
2015-Jul-28 01:04N 33°59' E 134°59'  
Track history (hours):
 
Tides and Currents Weather Stations Pressure Air Temp Water Temp Dewpoint Dewpoint Depression Visibility Wind Speed Wind Dir Waves Ship Positions

Thailine 5

Last reported at 2015-Jul-30 01:21 UTC. Time now 2015-Jul-30 02:04 UTC.
Position N 34°31' E 135°23'.

; draft 7.4 m.

Type: Cargo ship. MMSI: 533399000.

Date/timePositionNaut miles runAvg speedWind from/ knotsBaromVisibWave heightAir tempDewpointWater temp
2015-Jul-30 01:21N 34°31' E 135°23'0 0.0
2015-Jul-30 00:33N 34°31' E 135°23'0 0.0
2015-Jul-29 23:34N 34°31' E 135°23'0 0.0
2015-Jul-29 22:09N 34°31' E 135°23'0 0.0
2015-Jul-29 21:34N 34°31' E 135°23'0 0.0
2015-Jul-29 20:27N 34°31' E 135°23'0 0.0
2015-Jul-29 19:33N 34°31' E 135°23'0 0.0
2015-Jul-29 18:33N 34°31' E 135°23'0 0.0
2015-Jul-29 17:33N 34°31' E 135°23'0 0.0
2015-Jul-29 16:27N 34°31' E 135°23'0 0.0
2015-Jul-29 15:33N 34°31' E 135°23'0 0.0
2015-Jul-29 14:34N 34°31' E 135°23'0 0.0
2015-Jul-29 13:33N 34°31' E 135°23'0 0.0
2015-Jul-29 12:33N 34°31' E 135°23'0 0.0
2015-Jul-29 11:09N 34°31' E 135°23'0 0.0
2015-Jul-29 10:27N 34°31' E 135°23'0 0.0
2015-Jul-29 09:27N 34°31' E 135°23'0 0.0
2015-Jul-29 08:33N 34°31' E 135°23'0 0.0
2015-Jul-29 07:27N 34°31' E 135°23'0 0.0
2015-Jul-29 06:33N 34°31' E 135°23'1 0.5
2015-Jul-29 05:33N 34°31' E 135°23'2 1.5
2015-Jul-29 04:24N 34°32' E 135°21'0 0.0
2015-Jul-29 02:24N 34°32' E 135°21'0 0.0
2015-Jul-29 01:30N 34°32' E 135°21'0 0.0
2015-Jul-28 22:30N 34°32' E 135°21'0 0.1
2015-Jul-28 21:30N 34°32' E 135°21'0 0.0
2015-Jul-28 20:24N 34°32' E 135°21'0 0.1
2015-Jul-28 19:24N 34°32' E 135°21'0 0.0
2015-Jul-28 18:24N 34°32' E 135°21'0 0.0
2015-Jul-28 17:30N 34°32' E 135°21'0 0.0
2015-Jul-28 16:24N 34°32' E 135°21'0 0.1
2015-Jul-28 15:12N 34°32' E 135°21'0 0.1
2015-Jul-28 14:18N 34°32' E 135°21'0 0.0
2015-Jul-28 12:30N 34°32' E 135°21'0 0.0
2015-Jul-28 11:18N 34°32' E 135°21'0 0.0
2015-Jul-28 10:30N 34°32' E 135°21'0 0.0
2015-Jul-28 09:24N 34°32' E 135°21'0 0.0
2015-Jul-28 08:13N 34°32' E 135°21'3 4.2
2015-Jul-28 07:33N 34°30' E 135°18'10 9.9
2015-Jul-28 06:33N 34°25' E 135°08'10 9.6
2015-Jul-28 05:31N 34°18' E 134°60'8 8.3
2015-Jul-28 04:33N 34°10' E 134°59'6 5.0
2015-Jul-28 03:17N 34°04' E 134°57'3 4.0
2015-Jul-28 02:32N 34°02' E 134°59'3 1.9
2015-Jul-28 01:04N 33°59' E 134°59'  

Dump ship's entire track history